aviador You're here:

KPNC Decoded Metar

PONCA CITY in OK, USA
Report Time2017-12-16 17:53:00
UTC Time2017-12-16 18:53:54
Flight Rules vfr VFR
Wind200° at 12 Gusting to 22 kt
W.Decomp.*RWY 17: 10.9 kt HW 5.1 kt RCW
W.Rank200° ranks 11
Current wind is above 200° avg. (7.8)
Visibility9999 m
Phenomena:N/A
Clouds:N/A
Expected CloudBase > 6,800 ft AGL from Temp-Dew spread
CeilingNone
Temp14°C (ISA +1)
Dew Point-3°C (31% RH)
AAT7.3°C
QNH1014 hPa
Density Alt1,168 ft
Elevation1,010 ft
Report Wrong Elevation
Raw Report
KPNC 161753Z AUTO 20012G22KT 10SM CLR 14/M03 A2993 RMK AO2 SLP135
T01391028 10139 20033 58009=

Extra information for KPNC:More info

Metar Taf Metar & Taf Last 4 Metars F.Rules Stats Wind Profile Meteogram Temp Stats Airport Information Weather charts Add Link Nearby VenuesMetar ALERT Operation Metar Decoded Social comments

AIRNAV info for KPNC